Time;durP1;ratioP1;P1;durP2;ratioP2;P2;SDS_P1;SDS_P2;PMS_P1;PMS_P2;Temp;Humidity;BMP_temperature;BMP_pressure;BME280_temperature;BME280_humidity;BME280_pressure;Samples;Min_cycle;Max_cycle;Signal;HPM_P1;HPM_P2
2023/05/26 00:00:24;;;;;;;;;;;;;;;;;;5063112;28;19932;-61
2023/05/26 00:02:50;;;;;;;;;;;;;;;;;;5062943;28;19925;-61
2023/05/26 00:05:20;;;;;;;;;;;;;;;;;;5062869;28;19936;-61
2023/05/26 00:07:46;;;;;;;;;;;;;;;;;;5061940;28;20015;-61
2023/05/26 00:10:12;;;;;;;;;;;;;;;;;;5062977;28;20055;-61
2023/05/26 00:12:38;;;;;;;;;;;;;;;;;;5062650;28;19928;-62
2023/05/26 00:15:04;;;;;;;;;;;;;;;;;;5063171;28;19946;-61
2023/05/26 00:17:30;;;;;;;;;;;;;;;;;;5062942;28;20003;-61
2023/05/26 00:19:59;;;;;;;;;;;;;;;;;;5061559;28;20410;-62
2023/05/26 00:22:25;;;;;;;;;;;;;;;;;;5062429;28;19924;-61
2023/05/26 00:24:52;;;;;;;;;;;;;;;;;;5062571;28;19970;-61
2023/05/26 00:27:18;;;;;;;;;;;;;;;;;;5062501;28;19929;-61
2023/05/26 00:29:44;;;;;;;;;;;;;;;;;;5062532;28;19932;-61
2023/05/26 00:32:10;;;;;;;;;;;;;;;;;;5065893;28;19925;-62
2023/05/26 00:34:36;;;;;;;;;;;;;;;;;;5067136;28;20356;-62
2023/05/26 00:37:02;;;;;;;;;;;;;;;;;;5066765;28;19942;-61
2023/05/26 00:39:28;;;;;;;;;;;;;;;;;;5066093;28;20031;-61
2023/05/26 00:41:54;;;;;;;;;;;;;;;;;;5066841;28;19924;-61
2023/05/26 00:44:20;;;;;;;;;;;;;;;;;;5066452;28;19924;-61
2023/05/26 00:46:46;;;;;;;;;;;;;;;;;;5066521;28;20031;-61
2023/05/26 00:49:12;;;;;;;;;;;;;;;;;;5066887;28;20013;-60
2023/05/26 00:51:38;;;;;;;;;;;;;;;;;;5065824;28;20608;-60
2023/05/26 00:54:05;;;;;;;;;;;;;;;;;;5065977;28;19978;-60
2023/05/26 00:56:31;;;;;;;;;;;;;;;;;;5066391;28;19924;-60
2023/05/26 00:58:57;;;;;;;;;;;;;;;;;;5066341;28;19925;-60
2023/05/26 01:01:24;;;;;;;;;;;;;;;;;;5066756;28;20274;-60
2023/05/26 01:06:32;;;;;;;;;;;;;;;;;;4979878;28;19926;-61
2023/05/26 01:08:58;;;;;;;;;;;;;;;;;;4979821;28;20260;-60
2023/05/26 01:11:25;;;;;;;;;;;;;;;;;;4987567;28;19925;-61
2023/05/26 01:13:52;;;;;;;;;;;;;;;;;;4991592;28;20009;-61
2023/05/26 01:16:18;;;;;;;;;;;;;;;;;;4996195;28;19991;-61
2023/05/26 01:18:44;;;;;;;;;;;;;;;;;;5005455;28;19925;-61
2023/05/26 01:21:12;;;;;;;;;;;;;;;;;;5005375;28;20021;-61
2023/05/26 01:23:38;;;;;;;;;;;;;;;;;;4992463;28;19932;-61
2023/05/26 01:26:04;;;;;;;;;;;;;;;;;;5006022;28;20294;-61
2023/05/26 01:28:30;;;;;;;;;;;;;;;;;;5006238;28;19929;-61
2023/05/26 01:30:56;;;;;;;;;;;;;;;;;;5006165;28;20368;-61
2023/05/26 01:33:22;;;;;;;;;;;;;;;;;;5004480;28;19979;-61
2023/05/26 01:35:48;;;;;;;;;;;;;;;;;;5004641;28;19925;-61
2023/05/26 01:38:23;;;;;;;;;;;;;;;;;;5005020;28;19933;-61
2023/05/26 01:40:49;;;;;;;;;;;;;;;;;;4984594;28;19925;-61
2023/05/26 01:43:15;;;;;;;;;;;;;;;;;;4996963;28;19926;-60
2023/05/26 01:45:41;;;;;;;;;;;;;;;;;;5004149;28;19961;-60
2023/05/26 01:48:07;;;;;;;;;;;;;;;;;;5005484;28;19952;-61
2023/05/26 01:50:33;;;;;;;;;;;;;;;;;;5005344;28;19932;-61
2023/05/26 01:52:59;;;;;;;;;;;;;;;;;;5005164;28;19925;-61
2023/05/26 01:55:26;;;;;;;;;;;;;;;;;;5005642;28;19932;-61
2023/05/26 01:57:52;;;;;;;;;;;;;;;;;;5005742;28;19925;-61
2023/05/26 02:00:18;;;;;;;;;;;;;;;;;;5004638;28;19926;-61
2023/05/26 02:02:44;;;;;;;;;;;;;;;;;;5004200;28;20202;-61
2023/05/26 02:05:10;;;;;;;;;;;;;;;;;;5012748;28;20354;-60
2023/05/26 02:07:36;;;;;;;;;;;;;;;;;;5023754;28;19937;-61
2023/05/26 02:10:03;;;;;;;;;;;;;;;;;;5025248;28;19932;-61
2023/05/26 02:12:28;;;;;;;;;;;;;;;;;;5025529;28;19925;-60
2023/05/26 02:14:54;;;;;;;;;;;;;;;;;;4997396;28;20102;-61
2023/05/26 02:17:20;;;;;;;;;;;;;;;;;;5024699;28;19932;-60
2023/05/26 02:19:48;;;;;;;;;;;;;;;;;;5024027;28;19933;-61
2023/05/26 02:22:14;;;;;;;;;;;;;;;;;;5023783;28;20056;-61
2023/05/26 02:24:40;;;;;;;;;;;;;;;;;;5024764;28;19925;-60
2023/05/26 02:27:06;;;;;;;;;;;;;;;;;;5024812;28;20388;-61
2023/05/26 02:29:32;;;;;;;;;;;;;;;;;;5025048;28;20326;-61
2023/05/26 02:31:58;;;;;;;;;;;;;;;;;;5024194;28;19929;-61
2023/05/26 02:34:24;;;;;;;;;;;;;;;;;;5017008;28;20019;-61
2023/05/26 02:36:52;;;;;;;;;;;;;;;;;;5023946;28;20744;-60
2023/05/26 02:39:18;;;;;;;;;;;;;;;;;;5024435;28;20593;-60
2023/05/26 02:41:44;;;;;;;;;;;;;;;;;;5023958;28;20006;-61
2023/05/26 02:44:11;;;;;;;;;;;;;;;;;;5024234;28;20384;-61
2023/05/26 02:46:37;;;;;;;;;;;;;;;;;;5023523;28;19979;-60
2023/05/26 02:49:03;;;;;;;;;;;;;;;;;;5006005;28;19925;-61
2023/05/26 02:51:30;;;;;;;;;;;;;;;;;;5024236;28;19944;-61
2023/05/26 02:53:56;;;;;;;;;;;;;;;;;;5023011;28;20388;-61
2023/05/26 02:56:22;;;;;;;;;;;;;;;;;;5024899;28;20544;-62
2023/05/26 02:58:48;;;;;;;;;;;;;;;;;;5005525;28;19987;-63
2023/05/26 03:01:15;;;;;;;;;;;;;;;;;;5023012;28;19932;-60
2023/05/26 03:03:41;;;;;;;;;;;;;;;;;;5023223;28;19932;-60
2023/05/26 03:06:07;;;;;;;;;;;;;;;;;;5005230;28;19933;-61
2023/05/26 03:08:33;;;;;;;;;;;;;;;;;;5023542;28;20370;-60
2023/05/26 03:10:59;;;;;;;;;;;;;;;;;;5023593;28;19955;-61
2023/05/26 03:13:25;;;;;;;;;;;;;;;;;;5016891;28;20335;-62
2023/05/26 03:15:52;;;;;;;;;;;;;;;;;;5016510;28;20434;-62
2023/05/26 03:18:18;;;;;;;;;;;;;;;;;;5022544;28;19925;-62
2023/05/26 03:20:50;;;;;;;;;;;;;;;;;;5022831;28;20038;-62
2023/05/26 03:23:16;;;;;;;;;;;;;;;;;;5023370;28;19973;-64
2023/05/26 03:25:42;;;;;;;;;;;;;;;;;;5023525;28;19926;-61
2023/05/26 03:28:08;;;;;;;;;;;;;;;;;;5023427;28;19955;-62
2023/05/26 03:30:34;;;;;;;;;;;;;;;;;;5022586;28;19928;-62
2023/05/26 03:33:01;;;;;;;;;;;;;;;;;;5022672;28;20434;-62
2023/05/26 03:35:27;;;;;;;;;;;;;;;;;;5022819;28;19929;-62
2023/05/26 03:37:53;;;;;;;;;;;;;;;;;;5022562;28;20020;-61
2023/05/26 03:40:19;;;;;;;;;;;;;;;;;;5023111;28;20271;-62
2023/05/26 03:42:45;;;;;;;;;;;;;;;;;;5023354;28;19929;-62
2023/05/26 03:45:12;;;;;;;;;;;;;;;;;;5022524;28;20432;-62
2023/05/26 03:47:38;;;;;;;;;;;;;;;;;;5022570;28;19979;-62
2023/05/26 03:50:05;;;;;;;;;;;;;;;;;;5004734;28;19928;-61
2023/05/26 03:52:31;;;;;;;;;;;;;;;;;;5022839;28;20011;-61
2023/05/26 03:54:57;;;;;;;;;;;;;;;;;;5023273;28;20020;-62
2023/05/26 03:57:23;;;;;;;;;;;;;;;;;;5023378;28;19952;-61
2023/05/26 03:59:49;;;;;;;;;;;;;;;;;;5022883;28;19932;-61
2023/05/26 04:02:15;;;;;;;;;;;;;;;;;;5005266;28;19936;-61
2023/05/26 04:04:41;;;;;;;;;;;;;;;;;;5021500;28;19931;-61
2023/05/26 04:07:08;;;;;;;;;;;;;;;;;;5021481;28;19925;-62
2023/05/26 04:09:34;;;;;;;;;;;;;;;;;;5022418;28;19926;-61
2023/05/26 04:12:00;;;;;;;;;;;;;;;;;;5023466;28;20047;-61
2023/05/26 04:14:26;;;;;;;;;;;;;;;;;;5008825;28;19952;-62
2023/05/26 04:16:52;;;;;;;;;;;;;;;;;;5004567;28;20378;-61
2023/05/26 04:19:18;;;;;;;;;;;;;;;;;;5022534;28;19925;-61
2023/05/26 04:21:45;;;;;;;;;;;;;;;;;;5021308;28;20292;-61
2023/05/26 04:24:11;;;;;;;;;;;;;;;;;;5022749;28;19978;-61
2023/05/26 04:26:37;;;;;;;;;;;;;;;;;;5022146;28;19928;-62
2023/05/26 04:29:04;;;;;;;;;;;;;;;;;;5022607;28;19932;-62
2023/05/26 04:31:30;;;;;;;;;;;;;;;;;;5022108;28;19947;-63
2023/05/26 04:33:56;;;;;;;;;;;;;;;;;;5022265;28;19983;-62
2023/05/26 04:36:23;;;;;;;;;;;;;;;;;;5022967;28;20378;-62
2023/05/26 04:38:49;;;;;;;;;;;;;;;;;;5021622;28;19940;-62
2023/05/26 04:41:16;;;;;;;;;;;;;;;;;;5022454;28;20417;-61
2023/05/26 04:43:43;;;;;;;;;;;;;;;;;;5022246;28;19933;-61
2023/05/26 04:46:10;;;;;;;;;;;;;;;;;;5022672;28;20375;-62
2023/05/26 04:48:36;;;;;;;;;;;;;;;;;;5022074;28;19933;-62
2023/05/26 04:51:02;;;;;;;;;;;;;;;;;;5022714;28;19932;-62
2023/05/26 04:53:28;;;;;;;;;;;;;;;;;;5021691;28;19928;-61
2023/05/26 04:55:54;;;;;;;;;;;;;;;;;;5022230;28;19929;-61
2023/05/26 04:58:20;;;;;;;;;;;;;;;;;;5022538;28;19929;-61
2023/05/26 05:00:46;;;;;;;;;;;;;;;;;;5009839;28;19929;-63
2023/05/26 05:03:12;;;;;;;;;;;;;;;;;;5016616;28;19951;-61
2023/05/26 05:05:39;;;;;;;;;;;;;;;;;;5013626;28;19925;-61
2023/05/26 05:08:05;;;;;;;;;;;;;;;;;;5018517;28;19925;-61
2023/05/26 05:19:29;;;;;;;;;;;;;;;;;;5011649;28;20269;-62
2023/05/26 05:21:55;;;;;;;;;;;;;;;;;;5009262;28;19936;-62
2023/05/26 05:24:21;;;;;;;;;;;;;;;;;;5007283;28;19925;-61
2023/05/26 05:26:47;;;;;;;;;;;;;;;;;;5005945;28;20413;-62
2023/05/26 05:29:13;;;;;;;;;;;;;;;;;;5005388;28;19925;-62
2023/05/26 05:31:39;;;;;;;;;;;;;;;;;;5003378;28;19925;-62
2023/05/26 05:34:05;;;;;;;;;;;;;;;;;;5006374;28;20411;-62
2023/05/26 05:36:31;;;;;;;;;;;;;;;;;;5006432;28;19925;-63
2023/05/26 05:38:57;;;;;;;;;;;;;;;;;;5006073;28;19979;-64
2023/05/26 05:41:23;;;;;;;;;;;;;;;;;;5005499;28;20335;-61
2023/05/26 05:43:49;;;;;;;;;;;;;;;;;;5007629;28;20432;-61
2023/05/26 05:46:15;;;;;;;;;;;;;;;;;;5007729;28;20490;-62
2023/05/26 05:48:45;;;;;;;;;;;;;;;;;;5008272;28;19933;-63
2023/05/26 05:51:19;;;;;;;;;;;;;;;;;;5013529;28;19929;-62
2023/05/26 05:53:52;;;;;;;;;;;;;;;;;;5014228;28;20023;-62
2023/05/26 05:56:26;;;;;;;;;;;;;;;;;;5014900;28;19925;-63
2023/05/26 05:58:56;;;;;;;;;;;;;;;;;;5004671;28;19929;-61
2023/05/26 06:01:22;;;;;;;;;;;;;;;;;;5001950;28;19979;-61
2023/05/26 06:03:48;;;;;;;;;;;;;;;;;;4995268;28;19925;-62
2023/05/26 06:06:14;;;;;;;;;;;;;;;;;;4992068;28;19930;-60
2023/05/26 06:08:40;;;;;;;;;;;;;;;;;;4995817;28;19925;-60
2023/05/26 06:11:06;;;;;;;;;;;;;;;;;;4995711;28;19936;-61
2023/05/26 06:13:32;;;;;;;;;;;;;;;;;;5001104;28;20299;-62
2023/05/26 06:15:58;;;;;;;;;;;;;;;;;;4986712;28;19925;-62
2023/05/26 06:18:24;;;;;;;;;;;;;;;;;;5001089;28;19932;-63
2023/05/26 06:20:50;;;;;;;;;;;;;;;;;;4994184;28;19933;-62
2023/05/26 06:23:16;;;;;;;;;;;;;;;;;;5000354;28;20400;-62
2023/05/26 06:25:42;;;;;;;;;;;;;;;;;;5004087;28;20411;-61
2023/05/26 06:28:08;;;;;;;;;;;;;;;;;;5002864;28;19941;-62
2023/05/26 06:30:34;;;;;;;;;;;;;;;;;;4989596;28;19925;-64
2023/05/26 06:33:00;;;;;;;;;;;;;;;;;;4988045;28;20538;-63
2023/05/26 06:35:26;;;;;;;;;;;;;;;;;;4980166;28;19929;-61
2023/05/26 06:37:53;;;;;;;;;;;;;;;;;;5002880;28;19955;-61
2023/05/26 06:40:19;;;;;;;;;;;;;;;;;;5002697;28;19933;-63
2023/05/26 06:42:45;;;;;;;;;;;;;;;;;;5000419;28;20012;-65
2023/05/26 06:45:11;;;;;;;;;;;;;;;;;;5004400;28;20404;-62
2023/05/26 06:47:37;;;;;;;;;;;;;;;;;;4995295;28;19934;-64
2023/05/26 06:50:03;;;;;;;;;;;;;;;;;;4987137;28;19932;-64
2023/05/26 06:52:29;;;;;;;;;;;;;;;;;;4996801;28;19932;-62
2023/05/26 06:54:55;;;;;;;;;;;;;;;;;;5004223;28;19929;-61
2023/05/26 06:57:21;;;;;;;;;;;;;;;;;;4992961;28;19965;-62
2023/05/26 06:59:47;;;;;;;;;;;;;;;;;;4995534;28;19930;-63
2023/05/26 07:02:13;;;;;;;;;;;;;;;;;;4995275;28;19925;-64
2023/05/26 07:04:39;;;;;;;;;;;;;;;;;;5002397;28;20009;-61
2023/05/26 07:07:05;;;;;;;;;;;;;;;;;;4993873;28;19926;-62
2023/05/26 07:09:31;;;;;;;;;;;;;;;;;;4992704;28;19925;-62
2023/05/26 07:11:57;;;;;;;;;;;;;;;;;;4993549;28;20434;-61
2023/05/26 07:14:23;;;;;;;;;;;;;;;;;;5001041;28;19925;-60
2023/05/26 07:16:49;;;;;;;;;;;;;;;;;;5002633;28;20000;-62
2023/05/26 07:19:15;;;;;;;;;;;;;;;;;;4998265;28;19926;-62
2023/05/26 07:21:41;;;;;;;;;;;;;;;;;;4998286;28;19925;-62
2023/05/26 07:24:07;;;;;;;;;;;;;;;;;;5003382;28;19940;-62
2023/05/26 07:26:33;;;;;;;;;;;;;;;;;;4999617;28;20690;-61
2023/05/26 07:28:59;;;;;;;;;;;;;;;;;;4998886;28;19932;-63
2023/05/26 07:31:25;;;;;;;;;;;;;;;;;;4993588;28;19949;-61
2023/05/26 07:33:51;;;;;;;;;;;;;;;;;;4991681;28;19933;-64
2023/05/26 07:36:17;;;;;;;;;;;;;;;;;;4984268;28;20355;-64
2023/05/26 07:38:43;;;;;;;;;;;;;;;;;;4993585;28;19929;-62
2023/05/26 07:41:09;;;;;;;;;;;;;;;;;;4992518;28;19948;-64
2023/05/26 07:43:35;;;;;;;;;;;;;;;;;;4998575;28;20602;-66
2023/05/26 07:46:01;;;;;;;;;;;;;;;;;;4979054;28;19926;-65
2023/05/26 07:48:27;;;;;;;;;;;;;;;;;;5001199;28;19933;-65
2023/05/26 07:50:53;;;;;;;;;;;;;;;;;;4996585;28;20388;-66
2023/05/26 07:53:19;;;;;;;;;;;;;;;;;;4995563;28;20004;-64
2023/05/26 07:55:45;;;;;;;;;;;;;;;;;;5003511;28;20008;-65
2023/05/26 07:58:11;;;;;;;;;;;;;;;;;;5004072;28;20397;-64
2023/05/26 08:00:37;;;;;;;;;;;;;;;;;;4985988;28;20596;-65
2023/05/26 08:03:04;;;;;;;;;;;;;;;;;;5003973;28;20300;-64
2023/05/26 08:05:30;;;;;;;;;;;;;;;;;;5003562;28;20473;-65
2023/05/26 08:07:56;;;;;;;;;;;;;;;;;;5002925;28;19932;-67
2023/05/26 08:10:22;;;;;;;;;;;;;;;;;;5004703;28;19925;-65
2023/05/26 08:12:50;;;;;;;;;;;;;;;;;;5005748;28;19926;-65
2023/05/26 08:15:17;;;;;;;;;;;;;;;;;;5015166;28;19929;-65
2023/05/26 08:17:43;;;;;;;;;;;;;;;;;;5000805;28;20465;-65
2023/05/26 08:20:09;;;;;;;;;;;;;;;;;;5023434;28;19971;-65
2023/05/26 08:22:35;;;;;;;;;;;;;;;;;;5022756;28;19928;-66
2023/05/26 08:25:01;;;;;;;;;;;;;;;;;;5005837;28;20028;-66
2023/05/26 08:27:27;;;;;;;;;;;;;;;;;;4999960;28;20009;-65
2023/05/26 08:29:56;;;;;;;;;;;;;;;;;;4991231;28;19967;-65
2023/05/26 08:32:25;;;;;;;;;;;;;;;;;;5013628;28;19988;-65
2023/05/26 08:34:51;;;;;;;;;;;;;;;;;;5004899;28;19975;-65
2023/05/26 08:37:18;;;;;;;;;;;;;;;;;;5003728;28;19933;-66
2023/05/26 08:39:44;;;;;;;;;;;;;;;;;;5007408;28;20024;-67
2023/05/26 08:42:10;;;;;;;;;;;;;;;;;;4984999;28;20008;-65
2023/05/26 08:44:36;;;;;;;;;;;;;;;;;;5010863;28;19925;-66
2023/05/26 08:47:02;;;;;;;;;;;;;;;;;;5005265;28;19933;-65
2023/05/26 08:49:28;;;;;;;;;;;;;;;;;;5005585;28;19925;-65
2023/05/26 08:51:54;;;;;;;;;;;;;;;;;;4994630;28;19976;-65
2023/05/26 08:54:20;;;;;;;;;;;;;;;;;;4998672;28;20276;-65
2023/05/26 08:56:46;;;;;;;;;;;;;;;;;;4989140;28;19996;-64
2023/05/26 08:59:17;;;;;;;;;;;;;;;;;;5007203;28;20016;-65
2023/05/26 09:01:47;;;;;;;;;;;;;;;;;;4988611;28;19944;-65
2023/05/26 09:04:13;;;;;;;;;;;;;;;;;;4998274;28;20024;-64
2023/05/26 09:06:39;;;;;;;;;;;;;;;;;;4999505;28;19933;-64
2023/05/26 09:09:05;;;;;;;;;;;;;;;;;;5000152;28;19926;-65
2023/05/26 09:11:33;;;;;;;;;;;;;;;;;;5001265;28;19922;-64
2023/05/26 09:13:59;;;;;;;;;;;;;;;;;;5005047;28;20016;-64
2023/05/26 09:16:25;;;;;;;;;;;;;;;;;;4992773;28;20442;-65
2023/05/26 09:18:51;;;;;;;;;;;;;;;;;;5006042;28;19926;-65
2023/05/26 09:21:18;;;;;;;;;;;;;;;;;;5011095;28;20020;-64
2023/05/26 09:23:44;;;;;;;;;;;;;;;;;;5001860;28;19992;-65
2023/05/26 09:26:10;;;;;;;;;;;;;;;;;;5002835;28;19925;-65
2023/05/26 09:28:36;;;;;;;;;;;;;;;;;;4983084;28;20287;-65
2023/05/26 09:31:02;;;;;;;;;;;;;;;;;;4998403;28;19964;-65
2023/05/26 09:33:28;;;;;;;;;;;;;;;;;;4998648;28;19942;-66
2023/05/26 09:35:54;;;;;;;;;;;;;;;;;;4999752;28;19929;-66
2023/05/26 09:38:20;;;;;;;;;;;;;;;;;;4997608;28;19952;-65
2023/05/26 09:40:46;;;;;;;;;;;;;;;;;;4997253;28;20462;-65
2023/05/26 09:43:12;;;;;;;;;;;;;;;;;;4999050;28;19983;-66
2023/05/26 09:45:38;;;;;;;;;;;;;;;;;;4993396;28;19929;-65
2023/05/26 09:48:04;;;;;;;;;;;;;;;;;;4998717;28;19925;-65
2023/05/26 09:50:30;;;;;;;;;;;;;;;;;;4996054;28;19925;-66
2023/05/26 09:52:56;;;;;;;;;;;;;;;;;;4976398;28;19926;-66
2023/05/26 09:55:22;;;;;;;;;;;;;;;;;;4995026;28;20028;-65
2023/05/26 09:57:48;;;;;;;;;;;;;;;;;;4972973;28;19964;-65
2023/05/26 10:00:14;;;;;;;;;;;;;;;;;;4996047;28;19926;-65
2023/05/26 10:02:40;;;;;;;;;;;;;;;;;;4996665;28;20276;-66
2023/05/26 10:05:06;;;;;;;;;;;;;;;;;;4998148;28;20366;-66
2023/05/26 10:07:32;;;;;;;;;;;;;;;;;;4993445;28;19968;-66
2023/05/26 10:09:58;;;;;;;;;;;;;;;;;;4997869;28;19945;-66
2023/05/26 10:12:24;;;;;;;;;;;;;;;;;;4998118;28;19921;-66
2023/05/26 10:14:50;;;;;;;;;;;;;;;;;;5004973;28;20375;-66
2023/05/26 10:17:16;;;;;;;;;;;;;;;;;;4996048;28;20409;-66
2023/05/26 10:19:42;;;;;;;;;;;;;;;;;;4985033;28;19971;-66
2023/05/26 10:22:08;;;;;;;;;;;;;;;;;;4992458;28;20354;-66
2023/05/26 10:24:34;;;;;;;;;;;;;;;;;;5000331;28;19928;-66
2023/05/26 10:27:00;;;;;;;;;;;;;;;;;;4991716;28;19933;-66
2023/05/26 10:29:26;;;;;;;;;;;;;;;;;;4990890;28;19929;-66
2023/05/26 10:31:52;;;;;;;;;;;;;;;;;;4985823;28;20314;-66
2023/05/26 10:34:18;;;;;;;;;;;;;;;;;;5002708;28;20017;-66
2023/05/26 10:36:44;;;;;;;;;;;;;;;;;;5004145;28;20030;-66
2023/05/26 10:39:10;;;;;;;;;;;;;;;;;;5006265;28;19933;-65
2023/05/26 10:41:36;;;;;;;;;;;;;;;;;;5004870;28;19945;-65
2023/05/26 10:44:02;;;;;;;;;;;;;;;;;;4998101;28;20012;-66
2023/05/26 10:46:28;;;;;;;;;;;;;;;;;;5006485;28;20055;-66
2023/05/26 10:48:58;;;;;;;;;;;;;;;;;;4999918;28;20515;-65
2023/05/26 10:51:28;;;;;;;;;;;;;;;;;;5003473;28;19932;-65
2023/05/26 10:53:56;;;;;;;;;;;;;;;;;;5005361;28;19979;-66
2023/05/26 10:56:25;;;;;;;;;;;;;;;;;;4986523;28;19925;-65
2023/05/26 10:58:51;;;;;;;;;;;;;;;;;;5003228;28;19925;-66
2023/05/26 11:01:19;;;;;;;;;;;;;;;;;;5000780;28;20299;-66
2023/05/26 11:03:45;;;;;;;;;;;;;;;;;;5001196;28;20016;-65
2023/05/26 11:06:11;;;;;;;;;;;;;;;;;;5008956;28;20043;-65
2023/05/26 11:08:37;;;;;;;;;;;;;;;;;;5006356;28;19933;-65
2023/05/26 11:20:09;;;;;;;;;;;;;;;;;;4995189;28;19963;-66
2023/05/26 11:22:36;;;;;;;;;;;;;;;;;;4994790;28;20386;-68
2023/05/26 11:25:02;;;;;;;;;;;;;;;;;;4977719;28;20394;-68
2023/05/26 11:27:28;;;;;;;;;;;;;;;;;;4983759;28;20501;-67
2023/05/26 11:29:54;;;;;;;;;;;;;;;;;;4999179;28;20000;-68
2023/05/26 11:32:20;;;;;;;;;;;;;;;;;;5001757;28;19972;-67
2023/05/26 11:34:46;;;;;;;;;;;;;;;;;;5000513;28;20126;-65
2023/05/26 11:37:12;;;;;;;;;;;;;;;;;;4999044;28;19940;-65
2023/05/26 11:39:39;;;;;;;;;;;;;;;;;;4997521;28;20313;-66
2023/05/26 11:42:05;;;;;;;;;;;;;;;;;;5000756;28;19982;-67
2023/05/26 11:44:31;;;;;;;;;;;;;;;;;;4994407;28;19997;-66
2023/05/26 11:46:57;;;;;;;;;;;;;;;;;;5001518;28;19965;-66
2023/05/26 11:49:23;;;;;;;;;;;;;;;;;;5002174;28;19941;-66
2023/05/26 11:51:50;;;;;;;;;;;;;;;;;;5000812;28;19991;-66
2023/05/26 11:54:16;;;;;;;;;;;;;;;;;;4983175;28;20485;-66
2023/05/26 11:56:42;;;;;;;;;;;;;;;;;;4989785;28;19937;-66
2023/05/26 11:59:08;;;;;;;;;;;;;;;;;;4992632;28;19934;-66
2023/05/26 12:01:34;;;;;;;;;;;;;;;;;;4996785;28;20250;-66
2023/05/26 12:04:00;;;;;;;;;;;;;;;;;;4998396;28;19929;-66
2023/05/26 12:06:26;;;;;;;;;;;;;;;;;;4991578;28;19984;-66
2023/05/26 12:08:52;;;;;;;;;;;;;;;;;;4999095;28;19926;-64
2023/05/26 12:11:18;;;;;;;;;;;;;;;;;;4996558;28;19933;-64
2023/05/26 12:13:44;;;;;;;;;;;;;;;;;;4997183;28;19932;-65
2023/05/26 12:16:10;;;;;;;;;;;;;;;;;;4998865;28;19926;-65
2023/05/26 12:18:36;;;;;;;;;;;;;;;;;;4997914;28;19929;-65
2023/05/26 12:21:02;;;;;;;;;;;;;;;;;;4997829;28;19925;-65
2023/05/26 12:23:28;;;;;;;;;;;;;;;;;;4998578;28;20551;-65
2023/05/26 12:25:54;;;;;;;;;;;;;;;;;;4997945;28;20406;-66
2023/05/26 12:28:20;;;;;;;;;;;;;;;;;;5002319;28;20751;-66
2023/05/26 12:30:46;;;;;;;;;;;;;;;;;;4984771;28;19933;-66
2023/05/26 12:33:13;;;;;;;;;;;;;;;;;;5003039;28;20325;-66
2023/05/26 12:35:39;;;;;;;;;;;;;;;;;;5002724;28;20248;-66
2023/05/26 12:38:05;;;;;;;;;;;;;;;;;;5003229;28;19925;-66
2023/05/26 12:40:31;;;;;;;;;;;;;;;;;;4998707;28;19929;-65
2023/05/26 12:42:57;;;;;;;;;;;;;;;;;;4999547;28;19955;-66
2023/05/26 12:45:23;;;;;;;;;;;;;;;;;;5005504;28;19929;-66
2023/05/26 12:47:49;;;;;;;;;;;;;;;;;;5004851;28;19996;-66
2023/05/26 12:50:16;;;;;;;;;;;;;;;;;;5002816;28;20391;-66
2023/05/26 12:52:43;;;;;;;;;;;;;;;;;;5005107;28;19929;-66
2023/05/26 12:55:09;;;;;;;;;;;;;;;;;;5003743;28;20017;-66
2023/05/26 12:57:35;;;;;;;;;;;;;;;;;;5004781;28;20488;-66
2023/05/26 13:00:01;;;;;;;;;;;;;;;;;;5004239;28;20356;-64
2023/05/26 13:02:27;;;;;;;;;;;;;;;;;;5004638;28;19929;-66
2023/05/26 13:04:53;;;;;;;;;;;;;;;;;;5004752;28;19926;-66
2023/05/26 13:07:19;;;;;;;;;;;;;;;;;;5003936;28;19925;-66
2023/05/26 13:09:46;;;;;;;;;;;;;;;;;;5002995;28;19929;-67
2023/05/26 13:12:12;;;;;;;;;;;;;;;;;;5001152;28;19944;-67
2023/05/26 13:14:38;;;;;;;;;;;;;;;;;;5004417;28;19937;-66
2023/05/26 13:17:04;;;;;;;;;;;;;;;;;;5008524;28;19948;-67
2023/05/26 13:19:30;;;;;;;;;;;;;;;;;;5007472;28;20040;-67
2023/05/26 13:21:56;;;;;;;;;;;;;;;;;;5005608;28;19980;-66
2023/05/26 13:24:22;;;;;;;;;;;;;;;;;;5007367;28;19933;-66
2023/05/26 13:26:48;;;;;;;;;;;;;;;;;;4988359;28;20094;-66
2023/05/26 13:29:15;;;;;;;;;;;;;;;;;;5008396;28;19925;-67
2023/05/26 13:31:41;;;;;;;;;;;;;;;;;;5006235;28;20015;-67
2023/05/26 13:34:07;;;;;;;;;;;;;;;;;;5002525;28;20016;-66
2023/05/26 13:36:34;;;;;;;;;;;;;;;;;;4990486;28;20390;-66
2023/05/26 13:39:00;;;;;;;;;;;;;;;;;;5005461;28;19935;-66
2023/05/26 13:41:26;;;;;;;;;;;;;;;;;;5004894;28;19929;-66
2023/05/26 13:43:52;;;;;;;;;;;;;;;;;;5002002;28;20315;-66
2023/05/26 13:46:18;;;;;;;;;;;;;;;;;;5004584;28;19940;-65
2023/05/26 13:48:44;;;;;;;;;;;;;;;;;;4999983;28;19999;-66
2023/05/26 13:51:10;;;;;;;;;;;;;;;;;;4999104;28;20518;-65
2023/05/26 13:53:37;;;;;;;;;;;;;;;;;;5004003;28;19976;-65
2023/05/26 13:56:03;;;;;;;;;;;;;;;;;;5004186;28;20024;-65
2023/05/26 13:58:29;;;;;;;;;;;;;;;;;;5004434;28;20065;-66
2023/05/26 14:00:54;;;;;;;;;;;;;;;;;;5004273;28;20681;-66
2023/05/26 14:03:20;;;;;;;;;;;;;;;;;;4999281;28;19933;-66
2023/05/26 14:05:46;;;;;;;;;;;;;;;;;;4999439;28;20419;-66
2023/05/26 14:08:13;;;;;;;;;;;;;;;;;;5004131;28;20024;-66
2023/05/26 14:10:39;;;;;;;;;;;;;;;;;;5003591;28;20302;-66
2023/05/26 14:13:05;;;;;;;;;;;;;;;;;;5003534;28;19926;-66
2023/05/26 14:15:31;;;;;;;;;;;;;;;;;;5020808;28;19929;-68
2023/05/26 14:17:58;;;;;;;;;;;;;;;;;;5023747;28;19929;-67
2023/05/26 14:20:24;;;;;;;;;;;;;;;;;;4995360;28;19929;-67
2023/05/26 14:22:50;;;;;;;;;;;;;;;;;;5003583;28;19945;-67
2023/05/26 14:25:16;;;;;;;;;;;;;;;;;;5003779;28;20461;-67
2023/05/26 14:27:42;;;;;;;;;;;;;;;;;;5003592;28;20375;-66
2023/05/26 14:30:10;;;;;;;;;;;;;;;;;;5004701;28;19976;-67
2023/05/26 14:32:36;;;;;;;;;;;;;;;;;;4994091;28;20028;-67
2023/05/26 14:35:02;;;;;;;;;;;;;;;;;;5002727;28;20345;-66
2023/05/26 14:37:28;;;;;;;;;;;;;;;;;;5002944;28;19932;-66
2023/05/26 14:39:54;;;;;;;;;;;;;;;;;;4992306;28;20362;-66
2023/05/26 14:42:20;;;;;;;;;;;;;;;;;;5003007;28;20352;-67
2023/05/26 14:44:46;;;;;;;;;;;;;;;;;;5005471;28;19929;-67
2023/05/26 14:47:12;;;;;;;;;;;;;;;;;;5004066;28;19926;-67
2023/05/26 14:49:39;;;;;;;;;;;;;;;;;;4995140;28;19936;-67
2023/05/26 14:52:05;;;;;;;;;;;;;;;;;;5012730;28;19982;-66
2023/05/26 14:54:31;;;;;;;;;;;;;;;;;;5008964;28;19933;-66
2023/05/26 14:56:57;;;;;;;;;;;;;;;;;;5005149;28;19933;-66
2023/05/26 14:59:24;;;;;;;;;;;;;;;;;;5005729;28;20028;-66
2023/05/26 15:01:50;;;;;;;;;;;;;;;;;;5004917;28;19926;-66
2023/05/26 15:04:17;;;;;;;;;;;;;;;;;;5005106;28;20392;-66
2023/05/26 15:06:43;;;;;;;;;;;;;;;;;;5004144;28;19926;-66
2023/05/26 15:09:09;;;;;;;;;;;;;;;;;;5005346;28;19936;-66
2023/05/26 15:11:35;;;;;;;;;;;;;;;;;;5005215;28;19952;-66
2023/05/26 15:14:01;;;;;;;;;;;;;;;;;;5009727;28;19921;-65
2023/05/26 15:16:27;;;;;;;;;;;;;;;;;;5025032;28;19990;-65
2023/05/26 15:18:53;;;;;;;;;;;;;;;;;;5025221;28;19933;-66
2023/05/26 15:21:19;;;;;;;;;;;;;;;;;;5023960;28;20659;-66
2023/05/26 15:23:45;;;;;;;;;;;;;;;;;;5024459;28;20000;-66
2023/05/26 15:26:11;;;;;;;;;;;;;;;;;;5024784;28;19929;-65
2023/05/26 15:28:37;;;;;;;;;;;;;;;;;;4996041;28;19940;-66
2023/05/26 15:31:03;;;;;;;;;;;;;;;;;;5017460;28;19932;-66
2023/05/26 15:33:29;;;;;;;;;;;;;;;;;;4993112;28;19925;-66
2023/05/26 15:35:55;;;;;;;;;;;;;;;;;;4997124;28;20197;-65
2023/05/26 15:38:21;;;;;;;;;;;;;;;;;;4999055;28;20411;-66
2023/05/26 15:40:47;;;;;;;;;;;;;;;;;;5000753;28;19932;-67
2023/05/26 15:43:15;;;;;;;;;;;;;;;;;;4996726;28;21291;-66
2023/05/26 15:45:41;;;;;;;;;;;;;;;;;;4999238;28;19925;-66
2023/05/26 15:48:07;;;;;;;;;;;;;;;;;;4994614;28;19925;-67
2023/05/26 15:50:37;;;;;;;;;;;;;;;;;;4993904;28;20342;-66
2023/05/26 15:53:07;;;;;;;;;;;;;;;;;;4978965;28;19985;-66
2023/05/26 15:55:33;;;;;;;;;;;;;;;;;;5000354;28;20011;-66
2023/05/26 15:57:59;;;;;;;;;;;;;;;;;;4993377;28;19929;-66
2023/05/26 16:00:25;;;;;;;;;;;;;;;;;;4996640;28;19987;-66
2023/05/26 16:02:51;;;;;;;;;;;;;;;;;;4998319;28;20023;-66
2023/05/26 16:05:18;;;;;;;;;;;;;;;;;;4980168;28;20379;-66
2023/05/26 16:07:44;;;;;;;;;;;;;;;;;;4996416;28;19925;-66
2023/05/26 16:10:10;;;;;;;;;;;;;;;;;;4977652;28;20321;-66
2023/05/26 16:12:36;;;;;;;;;;;;;;;;;;4997824;28;19929;-67
2023/05/26 16:15:02;;;;;;;;;;;;;;;;;;4997071;28;20378;-66
2023/05/26 16:17:28;;;;;;;;;;;;;;;;;;4997926;28;19983;-66
2023/05/26 16:19:54;;;;;;;;;;;;;;;;;;4998284;28;19978;-65
2023/05/26 16:22:20;;;;;;;;;;;;;;;;;;4997412;28;19925;-65
2023/05/26 16:24:46;;;;;;;;;;;;;;;;;;4997020;28;20284;-65
2023/05/26 16:27:12;;;;;;;;;;;;;;;;;;4997688;28;19933;-65
2023/05/26 16:29:38;;;;;;;;;;;;;;;;;;4989481;28;20387;-65
2023/05/26 16:32:05;;;;;;;;;;;;;;;;;;5000811;28;19968;-65
2023/05/26 16:34:31;;;;;;;;;;;;;;;;;;4990204;28;19948;-66
2023/05/26 16:36:57;;;;;;;;;;;;;;;;;;4997759;28;20007;-66
2023/05/26 16:39:23;;;;;;;;;;;;;;;;;;4991305;28;19929;-66
2023/05/26 16:41:49;;;;;;;;;;;;;;;;;;4988957;28;19977;-66
2023/05/26 16:44:15;;;;;;;;;;;;;;;;;;4991261;28;19983;-66
2023/05/26 16:46:41;;;;;;;;;;;;;;;;;;4986702;28;19933;-66
2023/05/26 16:49:11;;;;;;;;;;;;;;;;;;4996478;28;19926;-66
2023/05/26 16:51:37;;;;;;;;;;;;;;;;;;4986885;28;19933;-66
2023/05/26 16:54:03;;;;;;;;;;;;;;;;;;4995521;28;19940;-66
2023/05/26 16:56:29;;;;;;;;;;;;;;;;;;4995889;28;19929;-66
2023/05/26 16:58:55;;;;;;;;;;;;;;;;;;4994709;28;19936;-66